Time;durP1;ratioP1;P1;durP2;ratioP2;P2;SDS_P1;SDS_P2;PMS_P1;PMS_P2;Temp;Humidity;BMP_temperature;BMP_pressure;BME280_temperature;BME280_humidity;BME280_pressure;Samples;Min_cycle;Max_cycle;Signal;HPM_P1;HPM_P2
2022/09/07 00:01:11;;;;;;;1091.63;997.47;;;24.80;87.50;;;;;;5086658;28;20560;-75
2022/09/07 00:03:39;;;;;;;1081.57;991.20;;;24.80;87.50;;;;;;5089209;28;20715;-75
2022/09/07 00:06:08;;;;;;;1094.45;998.35;;;24.80;87.60;;;;;;5073300;28;20193;-75
2022/09/07 00:08:35;;;;;;;1074.70;984.85;;;24.80;87.70;;;;;;5085678;28;20217;-75
2022/09/07 00:11:04;;;;;;;1090.03;996.53;;;24.80;87.70;;;;;;5075282;28;20314;-75
2022/09/07 00:13:33;;;;;;;1079.75;989.83;;;24.80;87.80;;;;;;5085459;28;20656;-75
2022/09/07 00:16:05;;;;;;;1085.57;993.30;;;24.80;87.90;;;;;;5074917;28;20201;-75
2022/09/07 00:18:31;;;;;;;1092.43;997.80;;;24.80;87.90;;;;;;5089435;28;20198;-75
2022/09/07 00:21:01;;;;;;;1081.82;991.15;;;24.80;88.00;;;;;;5082582;28;20205;-75
2022/09/07 00:23:29;;;;;;;1078.82;989.08;;;24.70;88.00;;;;;;5085364;28;20198;-75
2022/09/07 00:26:00;;;;;;;1065.45;976.03;;;24.80;88.10;;;;;;5077361;28;20277;-76
2022/09/07 00:28:27;;;;;;;1092.85;997.95;;;24.70;88.00;;;;;;5081069;28;20218;-75
2022/09/07 00:30:53;;;;;;;1083.20;992.55;;;24.70;88.10;;;;;;5080958;28;20273;-75
2022/09/07 00:33:20;;;;;;;1079.47;988.58;;;24.70;88.20;;;;;;5090960;28;20194;-75
2022/09/07 00:35:47;;;;;;;1090.93;997.30;;;24.70;88.40;;;;;;5083299;28;20212;-76
2022/09/07 00:38:19;;;;;;;1066.78;976.75;;;24.60;88.50;;;;;;5081936;28;20281;-75
2022/09/07 00:40:46;;;;;;;1074.55;984.88;;;24.60;88.70;;;;;;5081977;28;20210;-76
2022/09/07 00:43:16;;;;;;;1069.68;979.63;;;24.60;89.30;;;;;;5091144;28;20198;-76
2022/09/07 00:45:43;;;;;;;1065.55;976.00;;;24.60;89.60;;;;;;5079450;28;20603;-76
2022/09/07 00:48:15;;;;;;;1084.30;992.30;;;24.60;90.00;;;;;;5086560;28;20581;-76
2022/09/07 00:50:46;;;;;;;1093.45;998.38;;;24.50;90.10;;;;;;5090152;28;20217;-75
2022/09/07 00:53:18;;;;;;;1070.78;981.08;;;24.50;90.30;;;;;;5086342;28;20197;-75
2022/09/07 00:55:49;;;;;;;1081.05;990.63;;;24.50;90.30;;;;;;5071865;28;20198;-75
2022/09/07 00:58:17;;;;;;;1069.53;979.80;;;24.50;90.50;;;;;;5085185;28;20190;-75
2022/09/07 01:00:46;;;;;;;1083.15;991.97;;;24.50;90.60;;;;;;5085377;28;20191;-75
2022/09/07 01:03:15;;;;;;;1076.65;985.45;;;24.40;90.70;;;;;;5088755;28;20623;-74
2022/09/07 01:05:45;;;;;;;1069.03;979.22;;;24.40;90.90;;;;;;5079637;28;20317;-75
2022/09/07 01:08:13;;;;;;;1057.85;968.50;;;24.40;91.00;;;;;;5088713;28;20201;-76
2022/09/07 01:10:41;;;;;;;1086.57;993.90;;;24.40;91.10;;;;;;5083929;28;20276;-75
2022/09/07 01:13:08;;;;;;;1073.75;983.75;;;24.30;91.20;;;;;;5087392;28;20190;-75
2022/09/07 01:15:42;;;;;;;1064.85;975.15;;;24.30;91.30;;;;;;5076943;28;20194;-75
2022/09/07 01:18:16;;;;;;;1060.97;971.53;;;24.30;91.40;;;;;;5078354;28;20196;-75
2022/09/07 01:21:14;;;;;;;1069.40;979.33;;;24.30;91.50;;;;;;5089938;28;20189;-75
2022/09/07 01:24:16;;;;;;;1061.40;971.88;;;24.30;91.60;;;;;;5084524;28;20197;-75
2022/09/07 01:27:02;;;;;;;1081.45;991.13;;;24.20;91.70;;;;;;5085679;28;20208;-75
2022/09/07 01:29:35;;;;;;;1059.80;970.45;;;24.20;91.80;;;;;;5083623;28;20717;-75
2022/09/07 01:32:10;;;;;;;1062.22;972.63;;;24.20;91.90;;;;;;5087472;28;20186;-74
2022/09/07 01:34:38;;;;;;;1068.78;978.90;;;24.20;92.00;;;;;;5086203;28;20214;-73
2022/09/07 01:37:13;;;;;;;1062.18;972.70;;;24.20;92.10;;;;;;5086075;28;20236;-74
2022/09/07 01:39:46;;;;;;;1058.88;969.42;;;24.20;92.30;;;;;;5083681;28;20204;-75
2022/09/07 01:42:16;;;;;;;1056.78;967.42;;;24.10;92.30;;;;;;5088621;28;20678;-76
2022/09/07 01:44:50;;;;;;;1062.55;972.92;;;24.10;92.40;;;;;;5081797;28;20195;-75
2022/09/07 01:47:20;;;;;;;1065.07;975.63;;;24.10;92.50;;;;;;5085318;28;20217;-75
2022/09/07 01:49:51;;;;;;;1055.75;966.47;;;24.00;92.60;;;;;;5085315;28;20214;-75
2022/09/07 01:52:26;;;;;;;1061.13;971.90;;;24.10;92.80;;;;;;5081529;28;20194;-76
2022/09/07 01:54:58;;;;;;;1063.68;974.15;;;24.00;93.00;;;;;;5078018;28;20218;-76
2022/09/07 01:57:30;;;;;;;1071.82;981.60;;;24.00;93.10;;;;;;5087353;28;20197;-75
2022/09/07 02:00:05;;;;;;;1054.57;965.22;;;24.00;93.20;;;;;;5077554;28;20213;-76
2022/09/07 02:02:39;;;;;;;1049.15;960.00;;;23.90;93.30;;;;;;5091439;28;20644;-75
2022/09/07 02:05:10;;;;;;;1052.18;963.03;;;24.00;93.60;;;;;;5080783;28;20192;-75
2022/09/07 02:07:42;;;;;;;1067.63;977.75;;;23.90;93.70;;;;;;5077363;28;20209;-75
2022/09/07 02:10:13;;;;;;;1047.60;958.28;;;23.90;93.90;;;;;;5076871;28;20233;-76
2022/09/07 02:12:48;;;;;;;1048.63;959.47;;;23.90;94.00;;;;;;5086009;28;20205;-76
2022/09/07 02:15:22;;;;;;;1054.15;965.10;;;23.80;94.20;;;;;;5081204;28;20193;-75
2022/09/07 02:17:54;;;;;;;1059.85;970.05;;;23.80;94.40;;;;;;5092100;28;20193;-76
2022/09/07 02:20:25;;;;;;;1051.05;961.33;;;23.80;94.70;;;;;;5087190;28;20541;-75
2022/09/07 02:22:57;;;;;;;1060.00;969.83;;;23.80;94.90;;;;;;5087712;28;20219;-76
2022/09/07 02:25:26;;;;;;;1044.07;955.05;;;23.80;95.20;;;;;;5086188;28;20194;-76
2022/09/07 02:27:56;;;;;;;1059.50;969.55;;;23.80;95.50;;;;;;5088417;28;20197;-76
2022/09/07 02:30:24;;;;;;;1059.80;970.25;;;23.70;95.60;;;;;;5083414;28;20235;-75
2022/09/07 02:32:51;;;;;;;1038.55;949.83;;;23.70;95.80;;;;;;5089317;28;20235;-76
2022/09/07 02:35:18;;;;;;;1050.32;960.92;;;23.70;96.10;;;;;;5081981;28;20245;-76
2022/09/07 02:37:46;;;;;;;1055.13;965.50;;;23.70;96.20;;;;;;5077921;28;20190;-76
2022/09/07 02:40:13;;;;;;;1041.05;952.28;;;23.60;96.50;;;;;;5082386;28;20198;-76
2022/09/07 02:42:43;;;;;;;1048.70;959.30;;;23.60;96.70;;;;;;5090812;28;20648;-76
2022/09/07 02:45:12;;;;;;;1051.55;961.88;;;23.60;97.00;;;;;;5086378;28;20190;-74
2022/09/07 02:47:58;;;;;;;1053.28;963.80;;;23.60;97.20;;;;;;5085892;28;20197;-75
2022/09/07 02:50:36;;;;;;;1050.30;960.70;;;23.60;97.40;;;;;;5091411;28;20213;-74
2022/09/07 02:53:23;;;;;;;1038.20;949.22;;;23.50;97.70;;;;;;5084002;28;20197;-75
2022/09/07 02:56:00;;;;;;;1029.82;941.20;;;23.50;97.90;;;;;;5076028;28;20569;-76
2022/09/07 02:58:34;;;;;;;1033.70;944.92;;;23.50;98.10;;;;;;5090913;28;20193;-76
2022/09/07 03:01:09;;;;;;;1035.03;946.33;;;23.40;98.30;;;;;;5083478;28;20197;-75
2022/09/07 03:03:46;;;;;;;1038.13;949.03;;;23.40;98.70;;;;;;5092309;28;20234;-74
2022/09/07 03:06:20;;;;;;;1026.18;937.92;;;23.40;98.80;;;;;;5085895;28;20204;-76
2022/09/07 03:08:50;;;;;;;1025.93;937.58;;;23.40;99.00;;;;;;5086003;28;20552;-78
2022/09/07 03:11:17;;;;;;;1040.65;951.78;;;23.30;99.10;;;;;;5086820;28;20194;-77
2022/09/07 03:13:44;;;;;;;1042.07;952.85;;;23.30;99.40;;;;;;5085319;28;20190;-77
2022/09/07 03:16:13;;;;;;;1035.10;946.30;;;23.30;99.70;;;;;;5081432;28;20200;-77
2022/09/07 03:18:42;;;;;;;1023.65;935.22;;;23.30;99.80;;;;;;5082772;28;20191;-78
2022/09/07 03:21:09;;;;;;;1043.45;954.30;;;23.20;99.90;;;;;;5082969;28;20198;-78
2022/09/07 03:23:36;;;;;;;1036.35;947.70;;;23.20;99.90;;;;;;5083352;28;20216;-78
2022/09/07 03:26:03;;;;;;;1043.00;954.10;;;23.20;99.90;;;;;;5080527;28;20284;-78
2022/09/07 03:28:30;;;;;;;1027.10;938.80;;;23.20;99.90;;;;;;5078168;28;20197;-78
2022/09/07 03:30:56;;;;;;;1022.35;933.95;;;23.20;99.90;;;;;;5081468;28;20231;-78
2022/09/07 03:33:23;;;;;;;1036.90;947.72;;;23.20;99.90;;;;;;5082793;28;20194;-77
2022/09/07 03:35:59;;;;;;;1031.78;943.13;;;23.10;99.90;;;;;;5082679;28;20209;-78
2022/09/07 03:38:26;;;;;;;1033.07;944.30;;;23.10;99.90;;;;;;5076844;28;20190;-77
2022/09/07 03:40:59;;;;;;;1025.38;937.03;;;23.10;99.90;;;;;;5086142;28;20565;-76
2022/09/07 03:43:26;;;;;;;1018.95;930.83;;;23.10;99.90;;;;;;5084389;28;20243;-78
2022/09/07 03:45:57;;;;;;;1030.95;942.42;;;23.10;99.90;;;;;;5088479;28;20202;-77
2022/09/07 03:48:24;;;;;;;1027.47;939.13;;;23.00;99.90;;;;;;5083185;28;20198;-77
2022/09/07 03:50:57;;;;;;;1030.13;941.40;;;23.00;99.90;;;;;;5088280;28;20218;-78
2022/09/07 03:53:24;;;;;;;1017.65;929.50;;;23.00;99.90;;;;;;5078112;28;20655;-79
2022/09/07 03:55:58;;;;;;;1008.75;920.63;;;23.00;99.90;;;;;;5073706;28;20199;-77
2022/09/07 03:58:25;;;;;;;1017.67;929.60;;;23.00;99.90;;;;;;5078128;28;20567;-78
2022/09/07 04:00:51;;;;;;;1023.83;935.60;;;22.90;99.90;;;;;;5078689;28;20205;-79
2022/09/07 04:03:18;;;;;;;1015.88;927.85;;;23.00;99.90;;;;;;5085746;28;20205;-78
2022/09/07 04:05:45;;;;;;;1024.70;936.13;;;22.90;99.90;;;;;;5089459;28;20194;-78
2022/09/07 04:08:13;;;;;;;1027.82;939.38;;;22.90;99.90;;;;;;5073073;28;20205;-77
2022/09/07 04:10:40;;;;;;;1025.68;936.97;;;22.90;99.90;;;;;;5083144;28;20217;-77
2022/09/07 04:13:08;;;;;;;1000.20;912.67;;;22.90;99.90;;;;;;5086721;28;20189;-77
2022/09/07 04:15:35;;;;;;;1006.30;918.58;;;22.80;99.90;;;;;;5076513;28;20194;-77
2022/09/07 04:18:02;;;;;;;1017.60;929.50;;;22.80;99.90;;;;;;5087151;28;20190;-77
2022/09/07 04:20:29;;;;;;;1020.47;932.33;;;22.80;99.90;;;;;;5076360;28;20284;-77
2022/09/07 04:22:56;;;;;;;1005.70;917.92;;;22.70;99.90;;;;;;5069814;28;20198;-78
2022/09/07 04:25:24;;;;;;;1010.28;922.67;;;22.70;99.90;;;;;;5082400;28;20204;-78
2022/09/07 04:27:51;;;;;;;1013.20;925.15;;;22.80;99.90;;;;;;5078406;28;20205;-78
2022/09/07 04:30:17;;;;;;;1018.70;930.30;;;22.70;99.90;;;;;;5080939;28;20711;-78
2022/09/07 04:32:46;;;;;;;1008.80;921.15;;;22.70;99.90;;;;;;5073409;28;20194;-77
2022/09/07 04:35:13;;;;;;;1005.42;917.85;;;22.70;99.90;;;;;;5083976;28;20193;-76
2022/09/07 04:37:39;;;;;;;1013.83;925.97;;;22.60;99.90;;;;;;5080812;28;20204;-76
2022/09/07 04:40:07;;;;;;;1005.28;917.65;;;22.60;99.90;;;;;;5078671;28;20194;-74
2022/09/07 04:42:35;;;;;;;990.40;903.20;;;22.70;99.90;;;;;;5077611;28;20237;-75
2022/09/07 04:45:01;;;;;;;1004.35;916.88;;;22.60;99.90;;;;;;5076189;28;20192;-75
2022/09/07 04:47:29;;;;;;;994.15;906.63;;;22.60;99.90;;;;;;5075834;28;20190;-75
2022/09/07 04:49:56;;;;;;;1007.20;919.53;;;22.60;99.90;;;;;;5086612;28;20205;-75
2022/09/07 04:52:23;;;;;;;1006.13;918.38;;;22.60;99.90;;;;;;5078877;28;20217;-75
2022/09/07 04:54:50;;;;;;;998.75;911.42;;;22.60;99.90;;;;;;5081625;28;20198;-75
2022/09/07 04:57:20;;;;;;;1002.63;915.20;;;22.50;99.90;;;;;;5082587;28;20189;-75
2022/09/07 04:59:48;;;;;;;1002.05;914.65;;;22.50;99.90;;;;;;5077635;28;20197;-75
2022/09/07 05:02:15;;;;;;;990.97;903.75;;;22.50;99.90;;;;;;5084612;28;20191;-76
2022/09/07 05:04:41;;;;;;;1009.28;921.58;;;22.50;99.90;;;;;;5088791;28;20218;-77
2022/09/07 05:07:08;;;;;;;1008.45;920.63;;;22.50;99.90;;;;;;5083390;28;20217;-75
2022/09/07 05:09:35;;;;;;;997.88;910.50;;;22.50;99.90;;;;;;5085620;28;20209;-75
2022/09/07 05:12:02;;;;;;;995.03;907.72;;;22.40;99.90;;;;;;5093384;28;20211;-75
2022/09/07 05:14:29;;;;;;;1013.30;925.35;;;22.40;99.90;;;;;;5082143;28;20193;-74
2022/09/07 05:16:57;;;;;;;987.72;900.58;;;22.40;99.90;;;;;;5082511;28;20210;-75
2022/09/07 05:19:24;;;;;;;999.47;912.00;;;22.40;99.90;;;;;;5095830;28;20276;-75
2022/09/07 05:21:50;;;;;;;994.28;906.75;;;22.40;99.90;;;;;;5079633;28;20569;-74
2022/09/07 05:24:18;;;;;;;996.72;909.25;;;22.40;99.90;;;;;;5085976;28;20190;-74
2022/09/07 05:26:45;;;;;;;994.90;907.63;;;22.40;99.90;;;;;;5079535;28;20198;-76
2022/09/07 05:29:12;;;;;;;991.25;904.05;;;22.40;99.90;;;;;;5092529;28;20200;-76
2022/09/07 05:31:39;;;;;;;996.25;909.05;;;22.40;99.90;;;;;;5076750;28;20218;-76
2022/09/07 05:34:07;;;;;;;1008.20;920.42;;;22.40;99.90;;;;;;5090048;28;20281;-75
2022/09/07 05:36:35;;;;;;;1007.30;919.42;;;22.40;99.90;;;;;;5080433;28;20194;-75
2022/09/07 05:39:02;;;;;;;989.03;901.83;;;22.40;99.90;;;;;;5082797;28;20206;-76
2022/09/07 05:41:29;;;;;;;993.95;906.63;;;22.30;99.90;;;;;;5082545;28;20206;-76
2022/09/07 05:43:56;;;;;;;989.15;902.13;;;22.30;99.90;;;;;;5087086;28;21308;-75
2022/09/07 05:46:24;;;;;;;995.78;908.38;;;22.30;99.90;;;;;;5082106;28;20194;-76
2022/09/07 05:48:50;;;;;;;980.22;893.33;;;22.30;99.90;;;;;;5087549;28;20201;-76
2022/09/07 05:51:19;;;;;;;987.85;900.53;;;22.30;99.90;;;;;;5085546;28;20706;-75
2022/09/07 05:53:46;;;;;;;982.47;895.38;;;22.40;99.90;;;;;;5087724;28;20197;-75
2022/09/07 05:56:13;;;;;;;995.60;908.25;;;22.40;99.90;;;;;;5084011;28;20185;-76
2022/09/07 05:58:40;;;;;;;992.25;905.20;;;22.40;99.90;;;;;;5090997;28;20691;-77
2022/09/07 06:01:08;;;;;;;1000.47;912.88;;;22.50;99.90;;;;;;5083278;28;20196;-75
2022/09/07 06:03:36;;;;;;;995.30;908.03;;;22.50;99.90;;;;;;5092039;28;20228;-76
2022/09/07 06:06:05;;;;;;;989.90;902.80;;;22.50;99.90;;;;;;5072362;28;20256;-76
2022/09/07 06:08:35;;;;;;;1003.90;916.45;;;22.60;99.90;;;;;;5083016;28;20861;-75
2022/09/07 06:11:05;;;;;;;1014.80;926.78;;;22.60;99.90;;;;;;5087399;28;20209;-76
2022/09/07 06:13:32;;;;;;;996.85;909.63;;;22.60;99.90;;;;;;5084252;28;20255;-76
2022/09/07 06:16:00;;;;;;;1006.80;918.80;;;22.70;99.90;;;;;;5072167;28;20213;-76
2022/09/07 06:18:29;;;;;;;1004.75;916.95;;;22.70;99.90;;;;;;5082536;28;20202;-76
2022/09/07 06:20:56;;;;;;;1006.75;918.97;;;22.80;99.90;;;;;;5081108;28;20667;-76
2022/09/07 06:23:22;;;;;;;1030.55;941.97;;;22.90;99.90;;;;;;5075052;28;20194;-76
2022/09/07 06:25:50;;;;;;;1023.05;934.75;;;23.00;99.90;;;;;;5085727;28;20205;-75
2022/09/07 06:28:17;;;;;;;1022.58;934.35;;;23.20;99.90;;;;;;5079987;28;20194;-75
2022/09/07 06:30:44;;;;;;;1035.63;946.63;;;23.30;99.90;;;;;;5077165;28;20220;-75
2022/09/07 06:33:12;;;;;;;1020.17;931.60;;;23.40;99.90;;;;;;5086077;28;20209;-75
2022/09/07 06:35:38;;;;;;;1039.15;949.85;;;23.50;99.90;;;;;;5087788;28;20198;-75
2022/09/07 06:38:05;;;;;;;1055.55;966.00;;;23.70;99.90;;;;;;5081657;28;20193;-76
2022/09/07 06:40:33;;;;;;;1055.63;966.00;;;23.80;99.90;;;;;;5089902;28;20205;-74
2022/09/07 06:43:01;;;;;;;1053.90;964.45;;;23.80;99.90;;;;;;5087395;28;20286;-75
2022/09/07 06:45:28;;;;;;;1052.80;963.35;;;23.90;99.90;;;;;;5087024;28;20204;-75
2022/09/07 06:47:54;;;;;;;1038.28;949.42;;;23.90;99.90;;;;;;5086783;28;20194;-75
2022/09/07 06:50:21;;;;;;;1044.35;955.53;;;23.90;99.90;;;;;;5090238;28;20205;-75
2022/09/07 06:52:48;;;;;;;1053.72;964.92;;;23.90;99.90;;;;;;5082868;28;20198;-75
2022/09/07 06:55:15;;;;;;;1061.45;971.97;;;23.90;99.90;;;;;;5088757;28;20189;-75
2022/09/07 06:57:42;;;;;;;1049.88;960.72;;;23.90;99.90;;;;;;5087728;28;20201;-75
2022/09/07 07:00:11;;;;;;;1053.03;963.92;;;24.00;99.90;;;;;;5085427;28;20670;-75
2022/09/07 07:02:38;;;;;;;1053.22;963.88;;;24.10;99.90;;;;;;5083040;28;20197;-75
2022/09/07 07:05:06;;;;;;;1068.70;978.95;;;24.20;99.90;;;;;;5086418;28;20212;-75
2022/09/07 07:07:32;;;;;;;1054.55;965.35;;;24.40;99.90;;;;;;5086183;28;20671;-75
2022/09/07 07:09:59;;;;;;;1084.95;993.47;;;24.50;99.90;;;;;;5084017;28;20204;-75
2022/09/07 07:12:26;;;;;;;1066.95;977.28;;;24.70;99.90;;;;;;5076657;28;20712;-75
2022/09/07 07:14:52;;;;;;;1088.38;994.53;;;24.90;99.90;;;;;;5077824;28;20197;-75
2022/09/07 07:17:20;;;;;;;1072.75;982.83;;;25.00;99.90;;;;;;5081313;28;20202;-75
2022/09/07 07:19:47;;;;;;;1074.93;984.58;;;24.90;99.90;;;;;;5081901;28;20198;-75
2022/09/07 07:22:14;;;;;;;1078.00;987.17;;;24.80;99.90;;;;;;5076904;28;20201;-75
2022/09/07 07:24:41;;;;;;;1078.78;988.00;;;24.60;99.90;;;;;;5087254;28;20608;-74
2022/09/07 07:27:08;;;;;;;1083.97;992.63;;;24.50;99.90;;;;;;5091767;28;20193;-74
2022/09/07 07:29:34;;;;;;;1066.45;977.05;;;24.40;99.90;;;;;;5086519;28;20204;-74
2022/09/07 07:32:02;;;;;;;1064.30;974.63;;;24.50;99.90;;;;;;5088760;28;20217;-75
2022/09/07 07:34:30;;;;;;;1065.57;975.85;;;24.50;99.90;;;;;;5080995;28;20206;-75
2022/09/07 07:36:57;;;;;;;1074.03;984.28;;;24.60;99.90;;;;;;5082342;28;20202;-75
2022/09/07 07:39:24;;;;;;;1075.72;985.70;;;24.60;99.90;;;;;;5087826;28;20289;-75
2022/09/07 07:41:51;;;;;;;1075.45;985.22;;;24.60;99.90;;;;;;5085224;28;20216;-76
2022/09/07 07:44:18;;;;;;;1070.15;980.08;;;24.50;99.90;;;;;;5086289;28;20580;-74
2022/09/07 07:46:47;;;;;;;1070.85;980.33;;;24.40;99.90;;;;;;5078186;28;20222;-75
2022/09/07 07:49:14;;;;;;;1075.95;985.40;;;24.30;99.90;;;;;;5090623;28;20189;-75
2022/09/07 07:51:42;;;;;;;1083.07;991.20;;;24.30;99.90;;;;;;5077422;28;20226;-77
2022/09/07 07:54:09;;;;;;;1077.15;986.83;;;24.30;99.90;;;;;;5089614;28;20197;-78
2022/09/07 07:56:36;;;;;;;1081.70;991.03;;;24.30;99.90;;;;;;5083996;28;20683;-75
2022/09/07 07:59:02;;;;;;;1080.70;989.87;;;24.50;99.90;;;;;;5085123;28;20455;-78
2022/09/07 08:01:29;;;;;;;1090.73;997.63;;;24.60;99.90;;;;;;5089899;28;20946;-75
2022/09/07 08:03:57;;;;;;;1089.80;996.97;;;24.80;99.90;;;;;;5080602;28;20473;-78
2022/09/07 08:06:23;;;;;;;1085.13;993.70;;;24.80;99.90;;;;;;5084953;28;20456;-76
2022/09/07 08:08:51;;;;;;;1078.77;988.20;;;25.00;99.90;;;;;;5079002;28;20917;-74
2022/09/07 08:11:20;;;;;;;1111.33;999.90;;;25.10;99.90;;;;;;5089781;28;20486;-75
2022/09/07 08:13:49;;;;;;;1099.83;999.90;;;25.20;99.50;;;;;;5089170;28;20461;-75
2022/09/07 08:16:17;;;;;;;1093.30;998.23;;;25.40;99.10;;;;;;5084581;28;20430;-75
2022/09/07 08:18:44;;;;;;;1099.60;999.90;;;25.40;98.80;;;;;;5090416;28;20455;-75
2022/09/07 08:21:12;;;;;;;1109.63;999.90;;;25.40;98.60;;;;;;5077496;28;20458;-75
2022/09/07 08:23:39;;;;;;;1104.47;999.90;;;25.30;98.80;;;;;;5088275;28;20432;-75
2022/09/07 08:26:08;;;;;;;1110.40;999.90;;;25.20;98.90;;;;;;5085421;28;20456;-75
2022/09/07 08:28:37;;;;;;;1104.07;999.90;;;25.20;99.00;;;;;;5082994;28;20452;-75
2022/09/07 08:31:05;;;;;;;1095.50;998.93;;;25.20;99.10;;;;;;5082050;28;20474;-75
2022/09/07 08:33:33;;;;;;;1102.63;999.90;;;25.10;99.20;;;;;;5086453;28;20464;-74
2022/09/07 08:36:02;;;;;;;1108.00;999.90;;;25.10;99.30;;;;;;5075440;28;20449;-74
2022/09/07 08:38:31;;;;;;;1101.07;999.90;;;25.10;99.30;;;;;;5084283;28;20451;-74
2022/09/07 08:40:58;;;;;;;1081.00;990.10;;;25.10;99.30;;;;;;5086622;28;20463;-74
2022/09/07 08:43:35;;;;;;;1090.93;997.73;;;25.10;99.70;;;;;;5078833;28;20456;-77
2022/09/07 08:46:10;;;;;;;1086.23;994.67;;;25.10;99.40;;;;;;5079961;28;20460;-76
2022/09/07 08:48:38;;;;;;;1082.30;991.40;;;25.10;99.80;;;;;;5089276;28;20465;-77
2022/09/07 08:51:11;;;;;;;1090.67;997.47;;;25.10;99.40;;;;;;5076717;28;20478;-76
2022/09/07 08:53:43;;;;;;;1108.70;999.90;;;25.10;99.30;;;;;;5088270;28;20436;-76
2022/09/07 08:56:17;;;;;;;1096.23;999.50;;;25.20;99.30;;;;;;5077138;28;20460;-77
2022/09/07 08:58:47;;;;;;;1088.77;996.23;;;25.30;99.10;;;;;;5089174;28;20456;-76
2022/09/07 09:01:15;;;;;;;1089.00;996.27;;;25.30;99.00;;;;;;5084735;28;20460;-76
2022/09/07 09:03:42;;;;;;;1090.80;996.80;;;25.20;98.90;;;;;;5084683;28;20478;-77
2022/09/07 09:06:21;;;;;;;1090.90;997.43;;;25.10;99.10;;;;;;5084717;28;20447;-77
2022/09/07 09:09:08;;;;;;;1086.17;994.60;;;25.00;99.40;;;;;;5090770;28;20439;-77
2022/09/07 09:11:47;;;;;;;1078.00;987.20;;;24.90;99.80;;;;;;5085179;28;20483;-78
2022/09/07 09:14:23;;;;;;;1085.03;993.77;;;24.80;99.90;;;;;;5088738;28;20466;-77
2022/09/07 09:16:54;;;;;;;1087.57;995.73;;;24.60;99.90;;;;;;5079507;28;20456;-76
2022/09/07 09:19:44;;;;;;;1072.80;982.30;;;24.50;99.90;;;;;;5081580;28;20472;-76
2022/09/07 09:22:14;;;;;;;1072.30;981.97;;;24.50;99.90;;;;;;5074673;28;20545;-76
2022/09/07 09:24:45;;;;;;;1070.57;980.28;;;24.40;99.90;;;;;;5077470;28;20455;-76
2022/09/07 09:27:12;;;;;;;1072.43;982.05;;;24.30;99.90;;;;;;5084716;28;20217;-77
2022/09/07 09:29:40;;;;;;;1067.72;977.42;;;24.30;99.90;;;;;;5086787;28;20218;-76
2022/09/07 09:32:38;;;;;;;1064.47;974.13;;;24.30;99.90;;;;;;5079417;28;20294;-76
2022/09/07 09:35:13;;;;;;;1057.73;967.93;;;24.40;99.90;;;;;;5076322;28;20695;-79
2022/09/07 09:37:41;;;;;;;1071.13;980.97;;;24.50;99.90;;;;;;5081962;28;20451;-75
2022/09/07 09:40:19;;;;;;;1071.13;980.63;;;24.50;99.90;;;;;;5068867;28;20474;-77
2022/09/07 09:42:46;;;;;;;1073.27;983.00;;;24.50;99.90;;;;;;5079314;28;20456;-77
2022/09/07 09:45:19;;;;;;;1071.43;981.07;;;24.50;99.90;;;;;;5087786;28;20447;-76
2022/09/07 09:47:49;;;;;;;1069.47;979.30;;;24.50;99.90;;;;;;5086777;28;20475;-76
2022/09/07 09:50:20;;;;;;;1070.05;979.83;;;24.50;99.90;;;;;;5076746;28;20745;-76
2022/09/07 09:52:47;;;;;;;1064.40;974.43;;;24.50;99.90;;;;;;5080256;28;20229;-77
2022/09/07 09:55:23;;;;;;;1075.47;985.13;;;24.50;99.90;;;;;;5087405;28;20426;-76
2022/09/07 09:57:52;;;;;;;1075.63;985.03;;;24.60;99.90;;;;;;5088749;28;20439;-77
2022/09/07 10:00:23;;;;;;;1077.93;987.13;;;24.60;99.90;;;;;;5087222;28;20459;-77
2022/09/07 10:03:05;;;;;;;1080.33;989.63;;;24.80;99.90;;;;;;5090946;28;20511;-77
2022/09/07 10:05:36;;;;;;;1088.03;996.00;;;24.80;99.90;;;;;;5083693;28;20818;-75
2022/09/07 10:08:06;;;;;;;1086.07;994.80;;;24.90;99.90;;;;;;5087038;28;20426;-75
2022/09/07 10:10:33;;;;;;;1082.33;991.43;;;24.90;99.90;;;;;;5086873;28;20468;-75
2022/09/07 10:13:00;;;;;;;1082.70;992.27;;;24.90;99.90;;;;;;5092569;28;20442;-75
2022/09/07 10:15:34;;;;;;;1079.60;989.00;;;24.90;99.90;;;;;;5080794;28;21077;-75
2022/09/07 10:18:03;;;;;;;1081.30;990.83;;;24.90;99.90;;;;;;5092859;28;20758;-75
2022/09/07 10:20:33;;;;;;;1087.30;995.57;;;24.90;99.90;;;;;;5076704;28;20449;-75
2022/09/07 10:23:01;;;;;;;1095.33;999.10;;;25.00;99.90;;;;;;5080137;28;20460;-75
2022/09/07 10:25:30;;;;;;;1089.03;996.57;;;25.00;99.90;;;;;;5085314;28;20452;-75
2022/09/07 10:28:03;;;;;;;1097.73;999.90;;;25.10;99.90;;;;;;5088310;28;20443;-77
2022/09/07 10:30:39;;;;;;;1088.73;997.13;;;25.10;99.90;;;;;;5074712;28;20772;-76
2022/09/07 10:33:14;;;;;;;1090.27;997.23;;;25.10;99.90;;;;;;5084440;28;20438;-76
2022/09/07 10:35:51;;;;;;;1095.87;998.50;;;25.10;99.90;;;;;;5078469;28;20456;-77
2022/09/07 10:38:21;;;;;;;1097.13;999.73;;;25.20;99.90;;;;;;5075689;28;20452;-76
2022/09/07 10:40:54;;;;;;;1089.80;997.00;;;25.20;99.70;;;;;;5083231;28;20856;-77
2022/09/07 10:43:32;;;;;;;1090.40;997.10;;;25.20;99.60;;;;;;5078367;28;20534;-76
2022/09/07 10:46:15;;;;;;;1089.13;996.73;;;25.10;99.60;;;;;;5086618;28;20777;-76
2022/09/07 10:48:51;;;;;;;1101.13;999.90;;;25.10;99.80;;;;;;5081811;28;20441;-77
2022/09/07 10:51:23;;;;;;;1092.07;998.13;;;25.10;99.70;;;;;;5083046;28;20455;-76
2022/09/07 10:54:01;;;;;;;1094.53;998.90;;;25.10;99.70;;;;;;5077762;28;20431;-75
2022/09/07 10:56:35;;;;;;;1088.23;995.97;;;25.00;99.70;;;;;;5082039;28;20463;-76
2022/09/07 10:59:12;;;;;;;1075.27;984.80;;;25.00;99.80;;;;;;5084120;28;20795;-75
2022/09/07 11:01:51;;;;;;;1091.30;997.83;;;25.00;99.80;;;;;;5079993;28;20524;-76
2022/09/07 11:04:33;;;;;;;1074.13;983.93;;;25.00;99.80;;;;;;5087698;28;20995;-77
2022/09/07 11:07:08;;;;;;;1077.73;987.43;;;25.00;99.80;;;;;;5078284;28;20449;-78
2022/09/07 11:09:47;;;;;;;1082.30;991.53;;;25.00;99.90;;;;;;5084720;28;21115;-77
2022/09/07 11:12:18;;;;;;;1076.93;986.67;;;25.00;99.90;;;;;;5082501;28;20495;-76
2022/09/07 11:14:50;;;;;;;1079.70;989.23;;;25.10;99.90;;;;;;5079020;28;20523;-76
2022/09/07 11:17:22;;;;;;;1081.50;990.83;;;25.10;99.90;;;;;;5082979;28;20460;-77
2022/09/07 11:19:54;;;;;;;1087.93;996.00;;;25.10;99.90;;;;;;5084972;28;20434;-77
2022/09/07 11:22:31;;;;;;;1081.80;991.13;;;25.10;99.90;;;;;;5086305;28;20521;-76
2022/09/07 11:25:06;;;;;;;1084.13;993.43;;;25.10;99.80;;;;;;5088007;28;20681;-76
2022/09/07 11:27:39;;;;;;;1093.83;998.80;;;25.10;99.90;;;;;;5090250;28;20451;-76
2022/09/07 11:30:15;;;;;;;1085.73;994.60;;;25.10;99.90;;;;;;5085004;28;20923;-75
2022/09/07 11:32:50;;;;;;;1073.53;983.73;;;25.10;99.90;;;;;;5084667;28;20447;-76
2022/09/07 11:35:24;;;;;;;1076.45;986.58;;;25.10;99.90;;;;;;5084457;28;20474;-76
2022/09/07 11:37:58;;;;;;;1077.13;987.30;;;25.00;99.90;;;;;;5080195;28;20193;-75
2022/09/07 11:40:28;;;;;;;1082.72;992.20;;;25.00;99.90;;;;;;5082801;28;20244;-79
2022/09/07 11:42:59;;;;;;;1066.63;977.03;;;25.00;99.90;;;;;;5087346;28;20205;-75
2022/09/07 11:45:33;;;;;;;1084.15;993.15;;;25.00;99.90;;;;;;5088335;28;20453;-76
2022/09/07 11:48:05;;;;;;;1078.20;988.13;;;25.00;99.90;;;;;;5081252;28;20190;-76
2022/09/07 11:50:38;;;;;;;1077.25;987.53;;;25.00;99.90;;;;;;5087285;28;20572;-78
2022/09/07 11:53:08;;;;;;;1081.82;991.50;;;25.10;99.90;;;;;;5077626;28;20313;-78
2022/09/07 11:55:39;;;;;;;1078.33;988.53;;;25.10;99.90;;;;;;5080790;28;20659;-77
2022/09/07 11:58:30;;;;;;;1091.32;997.38;;;25.10;99.90;;;;;;5082654;28;20468;-76
2022/09/07 12:01:09;;;;;;;1085.20;993.58;;;25.10;99.90;;;;;;5078267;28;20549;-77
2022/09/07 12:03:56;;;;;;;1076.90;986.95;;;25.10;99.90;;;;;;5088031;28;20213;-77
2022/09/07 12:06:43;;;;;;;1080.70;990.03;;;25.10;99.90;;;;;;5084116;28;20201;-77
2022/09/07 12:09:26;;;;;;;1074.72;985.22;;;25.10;99.90;;;;;;5081200;28;20803;-77
2022/09/07 12:12:15;;;;;;;1093.60;997.38;;;25.10;99.90;;;;;;5089305;28;20197;-75
2022/09/07 12:14:56;;;;;;;1080.32;990.33;;;25.10;99.90;;;;;;5084646;28;20196;-76
2022/09/07 12:17:43;;;;;;;1065.13;975.88;;;25.10;99.90;;;;;;5076375;28;20252;-76